createdAt,value
2018-04-06T00:05:04.784Z,2.3
2018-04-06T00:10:31.560Z,2.3
2018-04-06T00:15:59.301Z,2.3
2018-04-06T00:21:26.035Z,2.3
2018-04-06T00:26:52.783Z,2.3
2018-04-06T00:32:19.527Z,2.4
2018-04-06T00:37:47.275Z,2.4
2018-04-06T00:43:14.060Z,2.4
2018-04-06T00:48:40.788Z,2.3
2018-04-06T00:54:08.535Z,2.3
2018-04-06T00:59:35.271Z,2.3
2018-04-06T01:05:02.100Z,2.3
2018-04-06T01:10:28.792Z,2.3
2018-04-06T01:15:55.475Z,2.2
2018-04-06T01:21:22.245Z,2.2
2018-04-06T01:26:48.993Z,2.2
2018-04-06T01:32:16.710Z,2.2
2018-04-06T01:37:44.469Z,2.1
2018-04-06T01:43:11.170Z,2.1
2018-04-06T01:48:37.916Z,2.1
2018-04-06T01:54:05.638Z,2.1
2018-04-06T01:59:33.429Z,2.2
2018-04-06T02:05:01.146Z,2.2
2018-04-06T02:10:27.864Z,2.2
2018-04-06T02:15:54.606Z,2.3
2018-04-06T02:21:21.350Z,2.3
2018-04-06T02:26:49.114Z,2.3
2018-04-06T02:37:43.590Z,2.3
2018-04-06T02:43:11.371Z,2.4
2018-04-06T02:48:38.085Z,2.5
2018-04-06T02:54:04.859Z,2.5
2018-04-06T02:59:31.602Z,2.6
2018-04-06T03:04:58.392Z,2.7
2018-04-06T03:10:25.196Z,2.8
2018-04-06T03:15:51.961Z,2.9
2018-04-06T03:21:18.745Z,3
2018-04-06T03:26:45.533Z,3.1
2018-04-06T03:32:12.338Z,3.1
2018-04-06T03:37:40.205Z,3.2
2018-04-06T03:43:06.972Z,3.1
2018-04-06T03:48:33.757Z,3.1
2018-04-06T03:54:01.604Z,3
2018-04-06T03:59:29.689Z,2.9
2018-04-06T04:04:56.173Z,2.8
2018-04-06T04:10:22.922Z,2.7
2018-04-06T04:15:49.700Z,2.6
2018-04-06T04:21:16.463Z,2.4
2018-04-06T04:26:44.205Z,2.3
2018-04-06T04:32:10.957Z,2.2
2018-04-06T04:37:38.756Z,2.1
2018-04-06T04:43:06.413Z,2
2018-04-06T04:48:34.088Z,1.9
2018-04-06T04:54:02.171Z,1.9
2018-04-06T04:59:28.509Z,1.9
2018-04-06T05:04:55.284Z,1.9
2018-04-06T05:10:22.913Z,1.8
2018-04-06T05:15:50.680Z,1.9
2018-04-06T05:21:18.346Z,1.9
2018-04-06T05:26:45.164Z,2
2018-04-06T05:32:11.807Z,2
2018-04-06T05:37:38.462Z,2.1
2018-04-06T05:43:06.199Z,2.2
2018-04-06T05:48:33.895Z,2.3
2018-04-06T05:54:00.650Z,2.4
2018-04-06T05:59:28.557Z,2.5
2018-04-06T06:04:55.133Z,2.6
2018-04-06T06:10:21.900Z,2.7
2018-04-06T06:15:49.614Z,2.8
2018-04-06T06:21:16.390Z,2.9
2018-04-06T06:26:44.156Z,3
2018-04-06T06:32:11.002Z,3.1
2018-04-06T06:37:37.835Z,3.3
2018-04-06T06:43:04.556Z,3.4
2018-04-06T06:48:31.401Z,3.6
2018-04-06T06:53:58.237Z,3.7
2018-04-06T06:59:25.033Z,3.8
2018-04-06T07:04:53.100Z,3.9
2018-04-06T07:10:19.806Z,4.1
2018-04-06T07:15:47.688Z,4.2
2018-04-06T07:21:15.538Z,4.3
2018-04-06T07:26:43.405Z,4.5
2018-04-06T07:32:10.342Z,4.6
2018-04-06T07:37:37.249Z,4.8
2018-04-06T07:43:05.188Z,4.9
2018-04-06T07:48:32.152Z,5
2018-04-06T07:53:59.057Z,5.1
2018-04-06T07:59:27.027Z,5.2
2018-04-06T08:04:54.973Z,5.4
2018-04-06T08:15:51.078Z,5.7
2018-04-06T08:21:18.043Z,5.7
2018-04-06T08:26:46.026Z,5.8
2018-04-06T08:32:12.991Z,5.9
2018-04-06T08:43:08.112Z,6.2
2018-04-06T08:48:36.111Z,6.3
2018-04-06T08:54:46.545Z,6.5
2018-04-06T08:59:30.216Z,6.7
2018-04-06T09:04:58.309Z,6.9
2018-04-06T09:15:54.528Z,7
2018-04-06T09:21:22.608Z,6.9
2018-04-06T09:26:49.729Z,7.2
2018-04-06T09:32:16.846Z,7.5
2018-04-06T09:37:43.988Z,7.4
2018-04-06T09:43:11.239Z,7.7
2018-04-06T09:48:38.342Z,8
2018-04-06T09:54:05.536Z,8
2018-04-06T09:59:33.791Z,8.2
2018-04-06T10:05:02.004Z,8.1
2018-04-06T10:10:29.214Z,8
2018-04-06T10:15:57.430Z,8.1
2018-04-06T10:21:25.595Z,8.2
2018-04-06T10:26:53.871Z,8.5
2018-04-06T10:32:21.061Z,8.7
2018-04-06T10:37:49.350Z,8.8
2018-04-06T10:43:16.602Z,9
2018-04-06T10:48:43.898Z,9.1
2018-04-06T10:54:11.201Z,9.1
2018-04-06T10:59:38.551Z,9.5
2018-04-06T11:05:06.924Z,9.7
2018-04-06T11:10:35.212Z,9.4
2018-04-06T11:16:03.538Z,9.3
2018-04-06T11:21:31.844Z,9.4
2018-04-06T11:27:00.314Z,9.5
2018-04-06T11:32:28.554Z,9.8
2018-04-06T11:37:56.940Z,10.2
2018-04-06T11:43:25.398Z,10.3
2018-04-06T11:48:52.735Z,10.3
2018-04-06T11:54:20.227Z,10.4
2018-04-06T11:59:48.634Z,10.7
2018-04-06T12:05:16.063Z,11.2
2018-04-06T12:10:43.607Z,12.4
2018-04-06T12:16:11.275Z,13.7
2018-04-06T12:21:40.078Z,14.7
2018-04-06T12:27:08.929Z,15.3
2018-04-06T12:32:37.851Z,15.9
2018-04-06T12:38:06.837Z,15.9
2018-04-06T12:43:34.835Z,16.3
2018-04-06T12:49:03.974Z,16.4
2018-04-06T12:54:31.954Z,16.1
2018-04-06T12:59:59.982Z,16.4
2018-04-06T13:05:27.938Z,16.1
2018-04-06T13:10:56.990Z,16.8
2018-04-06T13:16:26.043Z,17.1
2018-04-06T13:21:55.229Z,18
2018-04-06T13:27:24.405Z,18.1
2018-04-06T13:32:53.646Z,18.3
2018-04-06T13:38:21.978Z,18.6
2018-04-06T13:43:51.192Z,18.7
2018-04-06T13:49:19.479Z,19.1
2018-04-06T13:54:48.898Z,19.9
2018-04-06T14:00:17.368Z,20.1
2018-04-06T14:05:45.887Z,20.4
2018-04-06T14:11:15.438Z,20.5
2018-04-06T14:16:43.986Z,20.8
2018-04-06T14:22:12.578Z,20.9
2018-04-06T14:27:41.311Z,21.8
2018-04-06T14:33:10.012Z,22.3
2018-04-06T14:38:38.776Z,22.1
2018-04-06T14:44:07.526Z,20.7
2018-04-06T14:49:37.097Z,20.4
2018-04-06T14:55:05.662Z,19.8
2018-04-06T15:00:34.107Z,18.8
2018-04-06T15:06:02.425Z,17.3
2018-04-06T15:11:30.576Z,16.5
2018-04-06T15:16:58.702Z,16
2018-04-06T15:22:26.687Z,16.2
2018-04-06T15:27:55.816Z,17.2
2018-04-06T15:38:52.214Z,17.9
2018-04-06T15:49:50.665Z,18.2
2018-04-06T15:55:19.962Z,18.6
2018-04-06T16:00:49.281Z,18.6
2018-04-06T16:06:17.641Z,18.5
2018-04-06T16:11:46.953Z,17.9
2018-04-06T16:17:16.409Z,16.9
2018-04-06T16:22:45.281Z,15.5
2018-04-06T16:28:14.433Z,14.6
2018-04-06T16:33:43.219Z,13.8
2018-04-06T16:39:11.922Z,13
2018-04-06T16:44:39.586Z,12.3
2018-04-06T16:50:08.262Z,11.8
2018-04-06T16:55:36.803Z,11.6
2018-04-06T17:01:04.367Z,11.4
2018-04-06T17:06:32.890Z,11.2
2018-04-06T17:12:01.444Z,11
2018-04-06T17:17:29.970Z,10.8
2018-04-06T17:22:58.455Z,10.6
2018-04-06T17:28:25.890Z,10.4
2018-04-06T17:33:54.343Z,10.2
2018-04-06T17:39:22.793Z,10.2
2018-04-06T17:44:50.199Z,10.1
2018-04-06T17:50:17.679Z,9.8
2018-04-06T17:55:45.034Z,9.4
2018-04-06T18:01:12.384Z,9.2
2018-04-06T18:06:39.734Z,9.1
2018-04-06T18:12:07.079Z,8.9
2018-04-06T18:17:35.411Z,8.8
2018-04-06T18:23:02.693Z,8.7
2018-04-06T18:28:30.042Z,8.6
2018-04-06T18:33:58.284Z,8.5
2018-04-06T18:39:25.567Z,8.4
2018-04-06T18:44:52.902Z,8.3
2018-04-06T18:50:20.101Z,8.2
2018-04-06T18:55:48.374Z,8.1
2018-04-06T19:01:15.674Z,8
2018-04-06T19:06:42.832Z,7.8
2018-04-06T19:12:11.089Z,7.8
2018-04-06T19:17:39.280Z,7.7
2018-04-06T19:23:06.514Z,7.7
2018-04-06T19:28:33.694Z,7.6
2018-04-06T19:34:00.941Z,7.6
2018-04-06T19:39:28.111Z,7.6
2018-04-06T19:44:55.370Z,7.6
2018-04-06T19:50:23.596Z,7.6
2018-04-06T19:55:51.816Z,7.6
2018-04-06T20:01:19.139Z,7.6
2018-04-06T20:06:46.212Z,7.6
2018-04-06T20:12:13.378Z,7.6
2018-04-06T20:17:40.599Z,7.6
2018-04-06T20:23:07.788Z,7.5
2018-04-06T20:28:35.007Z,7.4
2018-04-06T20:34:02.177Z,7.4
2018-04-06T20:39:29.366Z,7.3
2018-04-06T20:44:57.550Z,7.2
2018-04-06T20:50:25.786Z,7.1
2018-04-06T20:55:54.037Z,7
2018-04-06T21:01:21.086Z,7
2018-04-06T21:06:48.253Z,6.9
2018-04-06T21:12:15.434Z,6.9
2018-04-06T21:17:43.541Z,6.8
2018-04-06T21:23:10.712Z,6.8
2018-04-06T21:28:39.074Z,6.8
2018-04-06T21:34:05.949Z,6.7
2018-04-06T21:39:33.126Z,6.7
2018-04-06T21:45:01.263Z,6.7
2018-04-06T21:50:29.392Z,6.6
2018-04-06T21:55:56.483Z,6.6
2018-04-06T22:01:23.637Z,6.6
2018-04-06T22:06:50.825Z,6.6
2018-04-06T22:12:18.844Z,6.5
2018-04-06T22:17:46.936Z,6.5
2018-04-06T22:23:15.013Z,6.5
2018-04-06T22:28:43.168Z,6.5
2018-04-06T22:34:10.287Z,6.4
2018-04-06T22:39:37.327Z,6.4
2018-04-06T22:45:04.465Z,6.4
2018-04-06T22:50:32.525Z,6.3
2018-04-06T22:55:59.650Z,6.3
2018-04-06T23:01:27.708Z,6.2
2018-04-06T23:06:55.768Z,6.1
2018-04-06T23:12:23.848Z,6
2018-04-06T23:17:50.915Z,6
2018-04-06T23:23:17.964Z,5.9
2018-04-06T23:28:45.006Z,5.9
2018-04-06T23:34:12.161Z,5.8
2018-04-06T23:39:40.119Z,5.7
2018-04-06T23:45:08.142Z,5.7
2018-04-06T23:50:35.183Z,5.6
2018-04-06T23:56:02.227Z,5.5
